Terminal Aerodrome Forecast
Issued by NWS

Home | Current Version | Previous Version | Text Only | Print | Product List | Glossary On
Versions: 1 2 3 4 5 6 7 8 9 10 11 12 13 14
611
FTUS46 KSTO 130523
TAFSAC
TAF
KSAC 130523Z 1306/1406 VRB03KT P6SM SCT250
     FM131100 VRB02KT 3SM BR SCT005
      TEMPO 1312/1316 1/2SM FG BKN002
     FM131800 33012G15KT P6SM SKC=

USA.gov is the U.S. government's official web portal to all federal, state and local government web resources and services.